Time;durP1;ratioP1;P1;durP2;ratioP2;P2;SDS_P1;SDS_P2;PMS_P1;PMS_P2;Temp;Humidity;BMP_temperature;BMP_pressure;BME280_temperature;BME280_humidity;BME280_pressure;Samples;Min_cycle;Max_cycle;Signal;HPM_P1;HPM_P2
2023/05/25 00:01:36;;;;;;;6.55;2.85;;;;;;;;;;5103564;27;20247;-73
2023/05/25 00:04:02;;;;;;;6.38;2.70;;;;;;;;;;5102339;28;20020;-73
2023/05/25 00:06:28;;;;;;;10.32;3.00;;;;;;;;;;5089985;28;20074;-73
2023/05/25 00:08:56;;;;;;;5.93;2.67;;;;;;;;;;5104653;27;20089;-73
2023/05/25 00:11:23;;;;;;;7.20;3.00;;;;;;;;;;5098110;28;20039;-73
2023/05/25 00:13:50;;;;;;;9.00;3.28;;;;;;;;;;5089850;27;20572;-73
2023/05/25 00:16:15;;;;;;;6.25;2.60;;;;;;;;;;5091653;27;20036;-73
2023/05/25 00:18:42;;;;;;;11.80;3.30;;;;;;;;;;5097886;28;20012;-72
2023/05/25 00:21:07;;;;;;;8.40;2.72;;;;;;;;;;5093462;27;20664;-72
2023/05/25 00:23:33;;;;;;;6.47;3.28;;;;;;;;;;5099446;27;20496;-73
2023/05/25 00:25:58;;;;;;;6.25;2.60;;;;;;;;;;5089000;28;20074;-73
2023/05/25 00:28:24;;;;;;;10.23;3.22;;;;;;;;;;5096519;27;20667;-73
2023/05/25 00:30:49;;;;;;;9.10;3.50;;;;;;;;;;5097768;28;20057;-73
2023/05/25 00:33:15;;;;;;;8.60;3.10;;;;;;;;;;5094728;27;20580;-73
2023/05/25 00:35:43;;;;;;;12.07;3.40;;;;;;;;;;5099283;27;20035;-72
2023/05/25 00:38:16;;;;;;;8.43;2.88;;;;;;;;;;5092868;27;20036;-73
2023/05/25 00:40:42;;;;;;;6.85;3.45;;;;;;;;;;5101534;28;20568;-73
2023/05/25 00:43:08;;;;;;;6.53;3.05;;;;;;;;;;5092438;28;20115;-72
2023/05/25 00:45:33;;;;;;;8.23;3.58;;;;;;;;;;5095632;28;20046;-73
2023/05/25 00:47:59;;;;;;;6.50;2.80;;;;;;;;;;5091448;27;20044;-73
2023/05/25 00:50:44;;;;;;;8.98;3.08;;;;;;;;;;5096845;28;20043;-73
2023/05/25 00:53:11;;;;;;;10.50;3.20;;;;;;;;;;5091889;27;20254;-72
2023/05/25 00:55:48;;;;;;;10.23;3.15;;;;;;;;;;5096631;28;20034;-73
2023/05/25 00:58:16;;;;;;;7.65;3.28;;;;;;;;;;5089451;27;20019;-72
2023/05/25 01:00:44;;;;;;;9.75;3.75;;;;;;;;;;5086745;28;20024;-72
2023/05/25 01:03:16;;;;;;;8.25;3.22;;;;;;;;;;5096103;28;20116;-73
2023/05/25 01:05:44;;;;;;;9.63;3.38;;;;;;;;;;5092784;27;20043;-72
2023/05/25 01:08:10;;;;;;;8.23;3.30;;;;;;;;;;5100233;27;20135;-73
2023/05/25 01:10:38;;;;;;;7.63;3.17;;;;;;;;;;5104814;28;20529;-73
2023/05/25 01:13:05;;;;;;;9.07;3.58;;;;;;;;;;5104690;28;20028;-73
2023/05/25 01:15:31;;;;;;;6.10;3.15;;;;;;;;;;5105328;28;20085;-72
2023/05/25 01:17:58;;;;;;;8.45;3.20;;;;;;;;;;5095144;27;20476;-72
2023/05/25 01:20:28;;;;;;;8.10;3.50;;;;;;;;;;5098158;27;20131;-73
2023/05/25 01:22:57;;;;;;;8.18;3.40;;;;;;;;;;5097359;27;20027;-73
2023/05/25 01:25:33;;;;;;;7.22;3.40;;;;;;;;;;5099954;27;20016;-72
2023/05/25 01:28:01;;;;;;;9.15;3.30;;;;;;;;;;5098209;27;20028;-73
2023/05/25 01:30:29;;;;;;;6.10;3.20;;;;;;;;;;5100121;27;20043;-73
2023/05/25 01:32:55;;;;;;;8.52;3.22;;;;;;;;;;5096798;27;20031;-73
2023/05/25 01:35:21;;;;;;;10.93;3.83;;;;;;;;;;5103314;27;20756;-73
2023/05/25 01:37:48;;;;;;;8.27;3.65;;;;;;;;;;5096719;27;20523;-72
2023/05/25 01:40:14;;;;;;;7.00;3.08;;;;;;;;;;5098180;27;20032;-72
2023/05/25 01:42:40;;;;;;;7.70;3.60;;;;;;;;;;5097885;28;20527;-73
2023/05/25 01:45:07;;;;;;;7.43;3.15;;;;;;;;;;5103205;27;20074;-73
2023/05/25 01:47:51;;;;;;;9.27;3.67;;;;;;;;;;5101960;27;20059;-72
2023/05/25 01:50:38;;;;;;;9.50;3.90;;;;;;;;;;5090373;27;20620;-73
2023/05/25 01:53:09;;;;;;;7.32;3.50;;;;;;;;;;5096164;28;20032;-73
2023/05/25 01:55:58;;;;;;;8.60;3.42;;;;;;;;;;5106219;27;20024;-73
2023/05/25 01:58:25;;;;;;;9.10;3.55;;;;;;;;;;5098614;27;20408;-73
2023/05/25 02:00:52;;;;;;;7.63;3.63;;;;;;;;;;5097188;28;20019;-73
2023/05/25 02:03:18;;;;;;;9.13;3.60;;;;;;;;;;5102335;28;20032;-73
2023/05/25 02:05:45;;;;;;;8.80;3.85;;;;;;;;;;5093336;28;20024;-73
2023/05/25 02:08:10;;;;;;;8.23;4.03;;;;;;;;;;5092906;27;20058;-73
2023/05/25 02:10:35;;;;;;;10.15;3.70;;;;;;;;;;5104866;28;20504;-73
2023/05/25 02:13:01;;;;;;;10.40;3.90;;;;;;;;;;5104694;28;20466;-73
2023/05/25 02:15:30;;;;;;;8.45;3.45;;;;;;;;;;5101102;27;20193;-73
2023/05/25 02:17:56;;;;;;;10.82;4.07;;;;;;;;;;5107201;27;20039;-73
2023/05/25 02:20:22;;;;;;;12.00;4.25;;;;;;;;;;5109682;27;20050;-72
2023/05/25 02:22:47;;;;;;;9.50;3.92;;;;;;;;;;5096888;27;20329;-73
2023/05/25 02:25:12;;;;;;;7.60;3.50;;;;;;;;;;5104065;27;20019;-73
2023/05/25 02:27:38;;;;;;;13.45;4.25;;;;;;;;;;5104422;27;20031;-72
2023/05/25 02:30:04;;;;;;;13.68;4.72;;;;;;;;;;5101970;28;20137;-73
2023/05/25 02:32:30;;;;;;;14.75;4.38;;;;;;;;;;5096047;28;20550;-73
2023/05/25 02:34:55;;;;;;;9.90;4.15;;;;;;;;;;5099260;27;20061;-73
2023/05/25 02:37:20;;;;;;;8.93;4.10;;;;;;;;;;5108475;27;20015;-73
2023/05/25 02:39:46;;;;;;;9.90;4.00;;;;;;;;;;5099310;28;20069;-72
2023/05/25 02:42:12;;;;;;;8.85;3.70;;;;;;;;;;5092518;28;20031;-72
2023/05/25 02:44:37;;;;;;;11.30;4.40;;;;;;;;;;5097479;28;20040;-72
2023/05/25 02:47:03;;;;;;;9.88;3.92;;;;;;;;;;5090214;27;20035;-73
2023/05/25 02:49:28;;;;;;;10.98;4.20;;;;;;;;;;5085881;27;20030;-73
2023/05/25 02:51:54;;;;;;;8.88;4.55;;;;;;;;;;5090834;28;20077;-73
2023/05/25 02:54:20;;;;;;;12.63;4.07;;;;;;;;;;5108623;27;20119;-73
2023/05/25 02:56:45;;;;;;;13.35;4.55;;;;;;;;;;5102414;27;20118;-73
2023/05/25 02:59:11;;;;;;;13.80;4.40;;;;;;;;;;5089719;27;20062;-73
2023/05/25 03:01:36;;;;;;;13.02;4.88;;;;;;;;;;5095107;28;20040;-72
2023/05/25 03:04:02;;;;;;;9.07;4.35;;;;;;;;;;5103798;27;20028;-72
2023/05/25 03:06:27;;;;;;;9.18;4.03;;;;;;;;;;5098909;27;20027;-73
2023/05/25 03:08:52;;;;;;;11.10;5.22;;;;;;;;;;5089920;28;20578;-72
2023/05/25 03:11:18;;;;;;;11.32;4.28;;;;;;;;;;5099666;27;20062;-73
2023/05/25 03:13:43;;;;;;;11.50;4.80;;;;;;;;;;5097959;27;20039;-73
2023/05/25 03:16:08;;;;;;;15.48;4.45;;;;;;;;;;5094416;27;20058;-73
2023/05/25 03:18:34;;;;;;;19.27;4.25;;;;;;;;;;5098797;27;20024;-73
2023/05/25 03:21:00;;;;;;;15.18;4.70;;;;;;;;;;5094061;28;20039;-73
2023/05/25 03:23:25;;;;;;;12.90;4.43;;;;;;;;;;5098443;28;20036;-73
2023/05/25 03:25:50;;;;;;;12.90;4.30;;;;;;;;;;5105389;27;20052;-73
2023/05/25 03:28:16;;;;;;;17.13;4.13;;;;;;;;;;5091350;28;20108;-72
2023/05/25 03:30:41;;;;;;;11.20;4.40;;;;;;;;;;5090277;28;20490;-73
2023/05/25 03:33:07;;;;;;;15.20;4.47;;;;;;;;;;5088133;27;20048;-73
2023/05/25 03:35:32;;;;;;;19.08;4.78;;;;;;;;;;5090216;28;20162;-73
2023/05/25 03:37:57;;;;;;;10.90;4.20;;;;;;;;;;5102400;27;20040;-73
2023/05/25 03:40:22;;;;;;;7.80;3.88;;;;;;;;;;5095830;28;20027;-72
2023/05/25 03:42:48;;;;;;;14.25;4.55;;;;;;;;;;5099973;27;20030;-73
2023/05/25 03:45:13;;;;;;;14.90;4.88;;;;;;;;;;5096926;28;20036;-73
2023/05/25 03:47:39;;;;;;;11.52;4.30;;;;;;;;;;5085691;27;20032;-73
2023/05/25 03:50:05;;;;;;;9.15;4.40;;;;;;;;;;5088575;28;20028;-72
2023/05/25 03:52:31;;;;;;;12.52;4.65;;;;;;;;;;5105085;27;20038;-73
2023/05/25 03:54:56;;;;;;;8.02;3.97;;;;;;;;;;5090580;28;20028;-73
2023/05/25 03:57:22;;;;;;;12.05;4.70;;;;;;;;;;5090542;28;20038;-73
2023/05/25 03:59:47;;;;;;;13.95;4.55;;;;;;;;;;5111306;27;20024;-73
2023/05/25 04:02:12;;;;;;;18.38;5.00;;;;;;;;;;5102295;27;20039;-73
2023/05/25 04:04:40;;;;;;;12.45;4.30;;;;;;;;;;5088356;28;20436;-73
2023/05/25 04:07:06;;;;;;;11.15;3.90;;;;;;;;;;5087011;28;20042;-73
2023/05/25 04:09:32;;;;;;;12.25;4.78;;;;;;;;;;5091838;27;20030;-73
2023/05/25 04:11:57;;;;;;;14.43;4.70;;;;;;;;;;5102094;27;20032;-73
2023/05/25 04:14:22;;;;;;;13.88;4.53;;;;;;;;;;5092928;28;20024;-73
2023/05/25 04:16:48;;;;;;;12.65;4.90;;;;;;;;;;5085027;28;20036;-73
2023/05/25 04:19:13;;;;;;;14.93;5.15;;;;;;;;;;5095774;28;20405;-73
2023/05/25 04:21:39;;;;;;;11.57;4.82;;;;;;;;;;5083298;28;20026;-73
2023/05/25 04:24:05;;;;;;;11.45;4.38;;;;;;;;;;5087903;28;20532;-73
2023/05/25 04:26:30;;;;;;;13.27;4.80;;;;;;;;;;5091354;28;20028;-73
2023/05/25 04:28:56;;;;;;;16.60;4.90;;;;;;;;;;5101071;27;21476;-73
2023/05/25 04:31:23;;;;;;;15.52;4.93;;;;;;;;;;5095042;27;20545;-73
2023/05/25 04:33:49;;;;;;;12.85;4.68;;;;;;;;;;5100193;28;20023;-73
2023/05/25 04:36:14;;;;;;;10.48;4.65;;;;;;;;;;5109610;27;20043;-73
2023/05/25 04:38:40;;;;;;;13.88;4.90;;;;;;;;;;5096868;27;20051;-73
2023/05/25 04:41:06;;;;;;;15.98;4.65;;;;;;;;;;5094844;28;20684;-73
2023/05/25 04:43:32;;;;;;;8.75;4.53;;;;;;;;;;5098934;27;20051;-73
2023/05/25 04:45:58;;;;;;;15.20;4.90;;;;;;;;;;5100646;28;20027;-73
2023/05/25 04:48:27;;;;;;;12.00;4.50;;;;;;;;;;5092573;27;20044;-73
2023/05/25 04:50:54;;;;;;;14.02;4.72;;;;;;;;;;5089107;28;20084;-73
2023/05/25 04:53:20;;;;;;;10.50;5.00;;;;;;;;;;5101442;27;20052;-73
2023/05/25 04:55:46;;;;;;;11.20;4.47;;;;;;;;;;5097879;27;20130;-72
2023/05/25 04:58:12;;;;;;;15.88;5.75;;;;;;;;;;5096401;27;20126;-73
2023/05/25 05:00:39;;;;;;;12.88;5.15;;;;;;;;;;5104687;27;20043;-73
2023/05/25 05:03:04;;;;;;;14.23;4.93;;;;;;;;;;5103874;27;20651;-73
2023/05/25 05:05:29;;;;;;;11.18;4.75;;;;;;;;;;5099372;27;20046;-73
2023/05/25 05:07:55;;;;;;;16.48;5.05;;;;;;;;;;5095430;28;20042;-73
2023/05/25 05:10:20;;;;;;;12.20;4.95;;;;;;;;;;5098906;27;20028;-73
2023/05/25 05:12:45;;;;;;;15.88;4.97;;;;;;;;;;5086251;28;20031;-73
2023/05/25 05:15:11;;;;;;;15.20;4.95;;;;;;;;;;5095552;27;20055;-74
2023/05/25 05:17:36;;;;;;;10.75;5.18;;;;;;;;;;5098443;27;20040;-73
2023/05/25 05:20:03;;;;;;;10.43;4.70;;;;;;;;;;5089358;27;20065;-72
2023/05/25 05:22:29;;;;;;;19.20;11.45;;;;;;;;;;5105348;27;20095;-72
2023/05/25 05:24:55;;;;;;;11.88;5.03;;;;;;;;;;5097673;27;20078;-73
2023/05/25 05:27:20;;;;;;;15.35;5.70;;;;;;;;;;5086353;27;20036;-72
2023/05/25 05:29:45;;;;;;;13.10;5.32;;;;;;;;;;5089484;27;20086;-72
2023/05/25 05:32:11;;;;;;;13.57;5.63;;;;;;;;;;5088951;27;20044;-72
2023/05/25 05:34:36;;;;;;;14.35;5.32;;;;;;;;;;5083612;28;20140;-74
2023/05/25 05:37:02;;;;;;;13.68;5.68;;;;;;;;;;5088317;27;20019;-73
2023/05/25 05:39:27;;;;;;;16.08;4.70;;;;;;;;;;5085528;27;20479;-73
2023/05/25 05:41:53;;;;;;;14.70;4.75;;;;;;;;;;5088429;27;20454;-73
2023/05/25 05:44:22;;;;;;;14.95;5.47;;;;;;;;;;5090463;27;20035;-73
2023/05/25 05:46:47;;;;;;;17.55;6.72;;;;;;;;;;5097093;28;20059;-73
2023/05/25 05:49:13;;;;;;;17.17;5.22;;;;;;;;;;5100972;27;20518;-73
2023/05/25 05:51:38;;;;;;;15.95;5.40;;;;;;;;;;5101142;28;20028;-73
2023/05/25 05:54:04;;;;;;;17.13;5.65;;;;;;;;;;5091182;27;20040;-73
2023/05/25 05:56:30;;;;;;;17.30;5.97;;;;;;;;;;5094172;27;20043;-73
2023/05/25 05:58:55;;;;;;;17.90;7.13;;;;;;;;;;5098945;27;20063;-73
2023/05/25 06:01:21;;;;;;;15.30;6.20;;;;;;;;;;5087001;27;20088;-73
2023/05/25 06:03:47;;;;;;;16.23;6.00;;;;;;;;;;5098650;28;20016;-74
2023/05/25 06:06:12;;;;;;;16.23;6.22;;;;;;;;;;5108663;27;20063;-73
2023/05/25 06:08:39;;;;;;;12.00;5.65;;;;;;;;;;5087599;28;20129;-74
2023/05/25 06:11:05;;;;;;;16.50;5.65;;;;;;;;;;5093349;28;20040;-73
2023/05/25 06:13:30;;;;;;;12.95;5.28;;;;;;;;;;5104103;27;20038;-73
2023/05/25 06:15:56;;;;;;;14.73;5.82;;;;;;;;;;5104615;28;20027;-73
2023/05/25 06:18:21;;;;;;;18.75;6.28;;;;;;;;;;5091417;27;20031;-73
2023/05/25 06:20:46;;;;;;;18.67;6.13;;;;;;;;;;5086504;27;20044;-73
2023/05/25 06:23:12;;;;;;;17.88;6.70;;;;;;;;;;5084081;27;20032;-73
2023/05/25 06:25:38;;;;;;;16.65;5.45;;;;;;;;;;5090514;28;20040;-73
2023/05/25 06:28:04;;;;;;;18.20;5.97;;;;;;;;;;5096631;27;20032;-73
2023/05/25 06:30:29;;;;;;;12.50;5.65;;;;;;;;;;5090591;27;20032;-73
2023/05/25 06:32:55;;;;;;;20.67;5.85;;;;;;;;;;5088112;27;20549;-72
2023/05/25 06:35:20;;;;;;;14.77;4.97;;;;;;;;;;5089845;27;20123;-73
2023/05/25 06:37:47;;;;;;;14.13;5.50;;;;;;;;;;5087083;27;20036;-72
2023/05/25 06:40:13;;;;;;;12.38;5.07;;;;;;;;;;5086356;27;20496;-73
2023/05/25 06:42:38;;;;;;;14.93;5.70;;;;;;;;;;5097877;27;20031;-73
2023/05/25 06:45:04;;;;;;;11.57;5.28;;;;;;;;;;5104705;27;20077;-73
2023/05/25 06:47:30;;;;;;;14.30;5.63;;;;;;;;;;5093987;27;20621;-73
2023/05/25 06:49:56;;;;;;;13.98;5.07;;;;;;;;;;5091173;27;20036;-73
2023/05/25 06:52:21;;;;;;;14.65;4.85;;;;;;;;;;5088372;27;20106;-73
2023/05/25 06:54:46;;;;;;;16.42;5.28;;;;;;;;;;5081036;27;23318;-73
2023/05/25 06:57:12;;;;;;;15.27;5.68;;;;;;;;;;5086443;27;20031;-73
2023/05/25 06:59:37;;;;;;;11.70;4.97;;;;;;;;;;5089962;27;20054;-73
2023/05/25 07:02:02;;;;;;;14.15;5.32;;;;;;;;;;5095631;27;20527;-73
2023/05/25 07:04:28;;;;;;;12.30;4.78;;;;;;;;;;5090493;27;20047;-72
2023/05/25 07:06:53;;;;;;;14.57;4.97;;;;;;;;;;5089481;27;20028;-73
2023/05/25 07:09:19;;;;;;;10.68;4.82;;;;;;;;;;5090926;27;21401;-72
2023/05/25 07:11:44;;;;;;;11.38;5.10;;;;;;;;;;5088743;27;20044;-73
2023/05/25 07:14:09;;;;;;;16.50;4.80;;;;;;;;;;5093238;27;20042;-73
2023/05/25 07:16:35;;;;;;;12.50;5.15;;;;;;;;;;5095790;27;20036;-73
2023/05/25 07:19:00;;;;;;;13.57;5.13;;;;;;;;;;5097377;27;20035;-73
2023/05/25 07:21:26;;;;;;;13.32;5.43;;;;;;;;;;5097285;27;20036;-72
2023/05/25 07:23:51;;;;;;;9.35;4.45;;;;;;;;;;5095559;27;20028;-73
2023/05/25 07:26:20;;;;;;;12.48;4.82;;;;;;;;;;5091124;27;20047;-73
2023/05/25 07:28:45;;;;;;;15.77;4.85;;;;;;;;;;5097105;27;20392;-73
2023/05/25 07:31:10;;;;;;;11.93;4.90;;;;;;;;;;5086715;27;20020;-72
2023/05/25 07:33:36;;;;;;;17.50;5.53;;;;;;;;;;5097967;27;20018;-73
2023/05/25 07:36:01;;;;;;;16.50;5.03;;;;;;;;;;5085440;27;20038;-73
2023/05/25 07:38:27;;;;;;;13.27;5.10;;;;;;;;;;5086919;27;20040;-73
2023/05/25 07:40:52;;;;;;;9.30;4.35;;;;;;;;;;5093806;28;20113;-73
2023/05/25 07:43:17;;;;;;;10.13;4.53;;;;;;;;;;5091834;27;20924;-73
2023/05/25 07:45:43;;;;;;;12.15;4.80;;;;;;;;;;5095887;27;20522;-73
2023/05/25 07:48:08;;;;;;;13.07;5.00;;;;;;;;;;5097959;28;20477;-72
2023/05/25 07:50:34;;;;;;;13.48;4.68;;;;;;;;;;5091149;27;20031;-73
2023/05/25 07:52:59;;;;;;;9.75;4.85;;;;;;;;;;5089367;27;20549;-73
2023/05/25 07:55:25;;;;;;;13.27;4.68;;;;;;;;;;5098439;27;20479;-73
2023/05/25 07:57:51;;;;;;;14.05;4.75;;;;;;;;;;5097611;28;20012;-72
2023/05/25 08:00:17;;;;;;;12.48;4.57;;;;;;;;;;5102967;27;20088;-72
2023/05/25 08:02:42;;;;;;;9.70;4.55;;;;;;;;;;5092284;28;20036;-72
2023/05/25 08:05:08;;;;;;;13.50;5.15;;;;;;;;;;5103829;28;20099;-72
2023/05/25 08:07:34;;;;;;;15.70;4.68;;;;;;;;;;5103004;27;20122;-73
2023/05/25 08:10:00;;;;;;;16.65;4.65;;;;;;;;;;5091809;28;20041;-73
2023/05/25 08:12:26;;;;;;;10.57;4.75;;;;;;;;;;5088243;28;20487;-73
2023/05/25 08:14:52;;;;;;;10.60;4.68;;;;;;;;;;5100449;27;20532;-73
2023/05/25 08:17:18;;;;;;;10.57;4.97;;;;;;;;;;5103423;27;20116;-73
2023/05/25 08:19:43;;;;;;;10.18;3.88;;;;;;;;;;5099437;27;20118;-73
2023/05/25 08:22:09;;;;;;;14.85;4.85;;;;;;;;;;5099154;27;20103;-73
2023/05/25 08:24:35;;;;;;;11.60;4.30;;;;;;;;;;5087611;27;20024;-73
2023/05/25 08:27:01;;;;;;;16.20;5.68;;;;;;;;;;5097742;27;20095;-73
2023/05/25 08:29:26;;;;;;;13.52;4.80;;;;;;;;;;5100501;27;20449;-73
2023/05/25 08:31:52;;;;;;;10.55;4.82;;;;;;;;;;5093059;27;20179;-73
2023/05/25 08:34:17;;;;;;;10.50;4.57;;;;;;;;;;5095936;27;20024;-73
2023/05/25 08:36:43;;;;;;;11.35;4.80;;;;;;;;;;5093370;27;20008;-74
2023/05/25 08:39:09;;;;;;;12.60;4.35;;;;;;;;;;5093596;27;20747;-73
2023/05/25 08:41:43;;;;;;;16.80;5.45;;;;;;;;;;5088562;27;20024;-73
2023/05/25 08:44:09;;;;;;;15.60;4.50;;;;;;;;;;5098357;28;20031;-73
2023/05/25 08:46:34;;;;;;;8.77;4.13;;;;;;;;;;5095712;27;20047;-73
2023/05/25 08:49:07;;;;;;;15.02;4.82;;;;;;;;;;5103301;27;20039;-73
2023/05/25 08:51:38;;;;;;;19.17;5.67;;;;;;;;;;5095456;27;20116;-73
2023/05/25 08:54:12;;;;;;;17.30;5.25;;;;;;;;;;5101606;27;20047;-73
2023/05/25 08:56:53;;;;;;;13.02;4.70;;;;;;;;;;5096425;27;20032;-72
2023/05/25 08:59:30;;;;;;;11.57;4.40;;;;;;;;;;5097103;27;20047;-73
2023/05/25 09:02:22;;;;;;;13.63;4.82;;;;;;;;;;5099097;27;20142;-73
2023/05/25 09:04:47;;;;;;;15.43;4.75;;;;;;;;;;5070589;27;20059;-73
2023/05/25 09:07:13;;;;;;;10.10;4.50;;;;;;;;;;5097226;27;20508;-73
2023/05/25 09:09:39;;;;;;;11.40;4.80;;;;;;;;;;5091424;27;20016;-73
2023/05/25 09:12:05;;;;;;;16.17;5.20;;;;;;;;;;5096602;27;20028;-72
2023/05/25 09:14:32;;;;;;;10.40;4.28;;;;;;;;;;5095190;27;21359;-73
2023/05/25 09:16:57;;;;;;;19.60;4.82;;;;;;;;;;5095253;27;20146;-72
2023/05/25 09:19:23;;;;;;;12.35;4.32;;;;;;;;;;5096185;27;20114;-73
2023/05/25 09:21:48;;;;;;;12.90;4.43;;;;;;;;;;5106356;27;20032;-73
2023/05/25 09:24:15;;;;;;;17.35;5.05;;;;;;;;;;5097419;27;20032;-73
2023/05/25 09:26:40;;;;;;;11.15;4.10;;;;;;;;;;5095295;27;20028;-73
2023/05/25 09:29:05;;;;;;;7.80;4.40;;;;;;;;;;5104383;27;20039;-73
2023/05/25 09:31:31;;;;;;;11.18;4.57;;;;;;;;;;5085053;27;20158;-72
2023/05/25 09:33:58;;;;;;;9.57;4.25;;;;;;;;;;5094014;27;20031;-72
2023/05/25 09:36:25;;;;;;;13.43;4.60;;;;;;;;;;5096004;27;20038;-73
2023/05/25 09:38:54;;;;;;;10.30;4.50;;;;;;;;;;5092663;27;20130;-73
2023/05/25 09:41:19;;;;;;;8.93;4.28;;;;;;;;;;5089612;27;20979;-73
2023/05/25 09:43:46;;;;;;;12.00;4.07;;;;;;;;;;5099858;27;20107;-73
2023/05/25 09:46:12;;;;;;;9.15;4.00;;;;;;;;;;5101104;27;20024;-73
2023/05/25 09:48:38;;;;;;;9.73;3.72;;;;;;;;;;5103409;28;20813;-73
2023/05/25 09:51:05;;;;;;;10.50;4.28;;;;;;;;;;5096285;27;20125;-73
2023/05/25 09:53:31;;;;;;;24.48;4.60;;;;;;;;;;5099443;28;20117;-73
2023/05/25 09:55:56;;;;;;;9.40;4.15;;;;;;;;;;5103621;28;20049;-73
2023/05/25 09:58:23;;;;;;;10.95;4.35;;;;;;;;;;5096485;27;20452;-73
2023/05/25 10:00:53;;;;;;;12.25;4.43;;;;;;;;;;5095334;27;20030;-73
2023/05/25 10:03:20;;;;;;;10.07;4.60;;;;;;;;;;5087555;28;20054;-73
2023/05/25 10:05:46;;;;;;;8.82;4.22;;;;;;;;;;5101044;27;20027;-73
2023/05/25 10:08:12;;;;;;;9.88;4.40;;;;;;;;;;5099203;27;20546;-73
2023/05/25 10:10:40;;;;;;;10.48;4.18;;;;;;;;;;5090345;27;20588;-73
2023/05/25 10:13:07;;;;;;;7.28;4.18;;;;;;;;;;5092121;27;20059;-73
2023/05/25 10:15:33;;;;;;;12.15;4.45;;;;;;;;;;5090698;27;20860;-73
2023/05/25 10:18:00;;;;;;;11.65;4.50;;;;;;;;;;5101650;27;20066;-73
2023/05/25 10:20:25;;;;;;;10.13;4.32;;;;;;;;;;5094755;27;20036;-73
2023/05/25 10:23:23;;;;;;;14.63;4.18;;;;;;;;;;5095716;27;20040;-72
2023/05/25 10:25:52;;;;;;;11.90;4.18;;;;;;;;;;5091409;27;20043;-73
2023/05/25 10:28:27;;;;;;;6.93;4.22;;;;;;;;;;5102457;27;20038;-73
2023/05/25 10:30:55;;;;;;;9.95;4.30;;;;;;;;;;5104502;28;20550;-73
2023/05/25 10:33:21;;;;;;;10.30;4.22;;;;;;;;;;5097480;27;20040;-73
2023/05/25 10:35:48;;;;;;;7.97;4.30;;;;;;;;;;5099781;27;20035;-73
2023/05/25 10:38:14;;;;;;;8.13;3.63;;;;;;;;;;5102058;27;20085;-73
2023/05/25 10:40:39;;;;;;;9.25;4.38;;;;;;;;;;5093446;27;20035;-73
2023/05/25 10:43:05;;;;;;;11.95;4.20;;;;;;;;;;5100332;28;20027;-73
2023/05/25 10:45:31;;;;;;;12.75;4.55;;;;;;;;;;5099144;27;20036;-73
2023/05/25 10:47:57;;;;;;;11.20;4.30;;;;;;;;;;5107107;27;20130;-73
2023/05/25 10:50:25;;;;;;;6.45;3.55;;;;;;;;;;5106615;27;20464;-73
2023/05/25 10:53:05;;;;;;;9.05;4.35;;;;;;;;;;5103150;27;20041;-73
2023/05/25 10:55:42;;;;;;;10.07;4.75;;;;;;;;;;5096106;27;20048;-74
2023/05/25 10:58:11;;;;;;;10.32;5.05;;;;;;;;;;5097459;27;20028;-73
2023/05/25 11:00:37;;;;;;;12.00;4.28;;;;;;;;;;5092212;28;20046;-73
2023/05/25 11:03:09;;;;;;;8.02;4.10;;;;;;;;;;5043475;27;20401;-74
2023/05/25 11:05:38;;;;;;;12.02;4.20;;;;;;;;;;5038873;28;20037;-74
2023/05/25 11:08:11;;;;;;;11.20;5.97;;;;;;;;;;5032400;28;20088;-74
2023/05/25 11:10:48;;;;;;;9.02;4.57;;;;;;;;;;5030200;28;20037;-71
2023/05/25 11:13:43;;;;;;;11.30;4.18;;;;;;;;;;5032597;28;20021;-71
2023/05/25 11:16:20;;;;;;;9.23;4.35;;;;;;;;;;5046155;28;20049;-72
2023/05/25 11:18:57;;;;;;;7.47;3.90;;;;;;;;;;5035543;28;20611;-71
2023/05/25 11:21:26;;;;;;;7.68;3.97;;;;;;;;;;5033445;28;20029;-71
2023/05/25 11:23:52;;;;;;;4.97;3.55;;;;;;;;;;5032626;28;20056;-71
2023/05/25 11:26:26;;;;;;;7.72;3.85;;;;;;;;;;5033492;28;20033;-71
2023/05/25 11:28:53;;;;;;;10.27;3.75;;;;;;;;;;5034141;28;20049;-71
2023/05/25 11:31:29;;;;;;;9.07;4.10;;;;;;;;;;5034778;28;20098;-72
2023/05/25 11:34:03;;;;;;;9.23;3.72;;;;;;;;;;5033333;28;20021;-72
2023/05/25 11:36:32;;;;;;;7.57;3.40;;;;;;;;;;5032298;28;20036;-72
2023/05/25 11:39:00;;;;;;;8.40;3.00;;;;;;;;;;5030827;28;20037;-71
2023/05/25 11:41:26;;;;;;;5.72;3.00;;;;;;;;;;5036061;28;20083;-71
2023/05/25 11:43:52;;;;;;;6.47;2.90;;;;;;;;;;5035570;28;20316;-72
2023/05/25 11:46:19;;;;;;;6.53;3.08;;;;;;;;;;5033999;28;20553;-71
2023/05/25 11:48:52;;;;;;;7.85;4.03;;;;;;;;;;5036308;28;20025;-71
2023/05/25 11:51:20;;;;;;;5.88;3.55;;;;;;;;;;5034499;28;20033;-71
2023/05/25 11:53:45;;;;;;;10.98;3.72;;;;;;;;;;5033661;28;20037;-72
2023/05/25 11:56:12;;;;;;;9.75;3.58;;;;;;;;;;5033959;28;20033;-71
2023/05/25 11:58:39;;;;;;;5.70;3.45;;;;;;;;;;5033252;28;20035;-72
2023/05/25 12:01:21;;;;;;;7.97;3.35;;;;;;;;;;5027686;28;20091;-71
2023/05/25 12:03:52;;;;;;;6.35;2.70;;;;;;;;;;5030239;28;20034;-72
2023/05/25 12:06:30;;;;;;;7.28;3.30;;;;;;;;;;5029738;28;20032;-72
2023/05/25 12:08:56;;;;;;;6.25;3.20;;;;;;;;;;5036436;28;20043;-71
2023/05/25 12:11:39;;;;;;;8.40;3.63;;;;;;;;;;5044527;28;20060;-72
2023/05/25 12:14:06;;;;;;;7.23;3.60;;;;;;;;;;5030249;28;20164;-71
2023/05/25 12:16:34;;;;;;;6.13;4.03;;;;;;;;;;5020861;28;20782;-72
2023/05/25 12:19:00;;;;;;;7.47;3.58;;;;;;;;;;5021324;28;20030;-71
2023/05/25 12:21:26;;;;;;;9.68;4.05;;;;;;;;;;5019171;28;20723;-73
2023/05/25 12:23:52;;;;;;;5.95;3.60;;;;;;;;;;5016192;28;20037;-73
2023/05/25 12:26:18;;;;;;;6.25;3.00;;;;;;;;;;5020164;28;20040;-73
2023/05/25 12:29:01;;;;;;;8.35;3.38;;;;;;;;;;5021948;28;20124;-73
2023/05/25 12:31:30;;;;;;;6.28;3.65;;;;;;;;;;5019671;28;20025;-73
2023/05/25 12:34:10;;;;;;;6.28;3.55;;;;;;;;;;5015883;28;20026;-73
2023/05/25 12:36:53;;;;;;;10.73;3.58;;;;;;;;;;5020949;28;20116;-73
2023/05/25 12:39:27;;;;;;;7.75;3.90;;;;;;;;;;5014852;28;20723;-73
2023/05/25 12:41:54;;;;;;;5.65;3.53;;;;;;;;;;5015906;28;20391;-73
2023/05/25 12:44:23;;;;;;;7.07;3.60;;;;;;;;;;5022482;28;20038;-72
2023/05/25 12:46:53;;;;;;;7.32;4.50;;;;;;;;;;5015282;28;20048;-73
2023/05/25 12:49:37;;;;;;;6.80;4.30;;;;;;;;;;5020482;28;20032;-73
2023/05/25 12:52:04;;;;;;;8.32;4.10;;;;;;;;;;5016709;28;20030;-73
2023/05/25 12:54:43;;;;;;;12.55;4.07;;;;;;;;;;5015590;28;20050;-73
2023/05/25 12:57:11;;;;;;;6.63;4.15;;;;;;;;;;5013511;28;20038;-73
2023/05/25 12:59:38;;;;;;;6.22;3.78;;;;;;;;;;5016222;28;20935;-73
2023/05/25 13:02:07;;;;;;;17.45;4.68;;;;;;;;;;5019981;28;20064;-73
2023/05/25 13:04:34;;;;;;;7.97;4.25;;;;;;;;;;5018824;28;20042;-73
2023/05/25 13:06:59;;;;;;;7.10;3.72;;;;;;;;;;5020369;28;20558;-73
2023/05/25 13:09:28;;;;;;;10.63;4.53;;;;;;;;;;5018594;28;20128;-73
2023/05/25 13:11:56;;;;;;;8.07;4.25;;;;;;;;;;5021294;28;20029;-73
2023/05/25 13:14:23;;;;;;;7.07;3.67;;;;;;;;;;5013740;28;20050;-73
2023/05/25 13:16:49;;;;;;;8.80;4.25;;;;;;;;;;5019618;28;20040;-73
2023/05/25 13:19:15;;;;;;;7.22;3.90;;;;;;;;;;5019716;28;20029;-73
2023/05/25 13:21:41;;;;;;;8.23;4.05;;;;;;;;;;5021834;28;20060;-73
2023/05/25 13:24:06;;;;;;;8.90;4.30;;;;;;;;;;5014977;28;20411;-73
2023/05/25 13:26:32;;;;;;;5.28;3.72;;;;;;;;;;5019964;28;20045;-73
2023/05/25 13:28:58;;;;;;;10.30;4.47;;;;;;;;;;5018054;28;20140;-73
2023/05/25 13:31:24;;;;;;;8.80;3.90;;;;;;;;;;5018640;28;20171;-73
2023/05/25 13:33:49;;;;;;;9.82;3.78;;;;;;;;;;5032569;28;20017;-73
2023/05/25 13:36:15;;;;;;;10.23;4.47;;;;;;;;;;5029059;28;20041;-73
2023/05/25 13:38:40;;;;;;;6.18;4.30;;;;;;;;;;5016045;28;20040;-74
2023/05/25 13:41:06;;;;;;;11.30;5.85;;;;;;;;;;5017828;28;20073;-73
2023/05/25 13:43:31;;;;;;;10.65;4.28;;;;;;;;;;5017397;28;20450;-73
2023/05/25 13:45:57;;;;;;;8.60;4.13;;;;;;;;;;5013655;28;20446;-73
2023/05/25 13:48:23;;;;;;;6.70;4.30;;;;;;;;;;5020375;28;20080;-74
2023/05/25 13:50:49;;;;;;;7.38;4.60;;;;;;;;;;5017824;28;20495;-74
2023/05/25 13:53:14;;;;;;;8.48;4.25;;;;;;;;;;5015685;28;20096;-73
2023/05/25 13:55:39;;;;;;;7.72;4.15;;;;;;;;;;5018037;28;20029;-74
2023/05/25 13:58:05;;;;;;;9.73;3.92;;;;;;;;;;5015897;28;20022;-73
2023/05/25 14:00:31;;;;;;;7.30;3.83;;;;;;;;;;5017964;28;20049;-74
2023/05/25 14:02:56;;;;;;;7.32;4.22;;;;;;;;;;5012718;28;20034;-73
2023/05/25 14:05:22;;;;;;;10.32;5.72;;;;;;;;;;5018258;28;20115;-74
2023/05/25 14:07:48;;;;;;;7.50;3.63;;;;;;;;;;5017213;28;20037;-73
2023/05/25 14:10:13;;;;;;;8.90;4.22;;;;;;;;;;5013664;28;20391;-73
2023/05/25 14:12:39;;;;;;;9.48;3.95;;;;;;;;;;5017219;28;20017;-73
2023/05/25 14:15:05;;;;;;;7.03;4.00;;;;;;;;;;5016100;28;20038;-73
2023/05/25 14:17:31;;;;;;;8.38;4.60;;;;;;;;;;5018478;28;20041;-73
2023/05/25 14:19:57;;;;;;;12.55;4.40;;;;;;;;;;5017120;28;20040;-74
2023/05/25 14:22:22;;;;;;;8.65;4.22;;;;;;;;;;5012029;28;20057;-73
2023/05/25 14:24:48;;;;;;;9.75;4.30;;;;;;;;;;5008493;28;20132;-74
2023/05/25 14:27:14;;;;;;;11.75;4.75;;;;;;;;;;5014696;28;20079;-74
2023/05/25 14:29:40;;;;;;;9.02;4.07;;;;;;;;;;5021320;28;20037;-73
2023/05/25 14:32:05;;;;;;;9.27;4.53;;;;;;;;;;5015514;28;20036;-73
2023/05/25 14:34:31;;;;;;;8.27;4.43;;;;;;;;;;5013304;28;20044;-73
2023/05/25 14:36:56;;;;;;;6.20;4.10;;;;;;;;;;5015413;28;20594;-74